createdAt,value
2022-11-05T00:01:49.371Z,95827.66
2022-11-05T00:04:34.563Z,95747.63
2022-11-05T00:07:37.060Z,95638.31
2022-11-05T00:10:04.870Z,95783.84
2022-11-05T00:12:50.221Z,95755.81
2022-11-05T00:15:35.218Z,95838.09
2022-11-05T00:18:01.845Z,95817.53
2022-11-05T00:20:28.445Z,95768.88
2022-11-05T00:23:23.347Z,95757.59
2022-11-05T00:26:00.923Z,95720.19
2022-11-05T00:28:28.408Z,95595.47
2022-11-05T00:30:55.280Z,95588.78
2022-11-05T00:33:21.883Z,95734.59
2022-11-05T00:35:48.516Z,95735.44
2022-11-05T00:38:15.127Z,95781.53
2022-11-05T00:40:41.712Z,95789.13
2022-11-05T00:43:26.980Z,95793.31
2022-11-05T00:45:53.551Z,95788.31
2022-11-05T00:48:38.628Z,95765.66
2022-11-05T00:51:05.478Z,95788.16
2022-11-05T00:53:32.189Z,95784.41
2022-11-05T00:55:58.832Z,95728.97
2022-11-05T00:58:27.206Z,95710.03
2022-11-05T01:00:55.073Z,95805.47
2022-11-05T01:03:23.560Z,95726.72
2022-11-05T01:05:51.937Z,95746.47
2022-11-05T01:08:19.565Z,95791.72
2022-11-05T01:10:48.144Z,95770.22
2022-11-05T01:13:17.130Z,95845.91
2022-11-05T01:15:43.982Z,95787.53
2022-11-05T01:18:10.763Z,95745.16
2022-11-05T01:20:37.494Z,95738.22
2022-11-05T01:23:08.865Z,95799.50
2022-11-05T01:25:38.872Z,95754.22
2022-11-05T01:28:05.595Z,95696.59
2022-11-05T01:30:32.238Z,95819.72
2022-11-05T01:32:58.861Z,95857.84
2022-11-05T01:35:25.605Z,95789.28
2022-11-05T01:37:52.194Z,95807.72
2022-11-05T01:40:20.484Z,95701.13
2022-11-05T01:42:47.421Z,95701.75
2022-11-05T01:45:22.738Z,95806.56
2022-11-05T01:47:57.978Z,95872.41
2022-11-05T01:50:34.922Z,95876.09
2022-11-05T01:53:33.352Z,95835.16
2022-11-05T01:56:02.009Z,95875.81
2022-11-05T01:58:31.766Z,95717.41
2022-11-05T02:00:58.500Z,95806.97
2022-11-05T02:03:25.317Z,95653.94
2022-11-05T02:05:52.364Z,95853.59
2022-11-05T02:08:36.736Z,95828.00
2022-11-05T02:11:03.581Z,95903.06
2022-11-05T02:13:30.174Z,95852.88
2022-11-05T02:16:05.201Z,95844.75
2022-11-05T02:18:38.139Z,95911.47
2022-11-05T02:21:31.658Z,95928.56
2022-11-05T02:24:20.464Z,95868.81
2022-11-05T02:27:05.838Z,95921.91
2022-11-05T02:29:58.883Z,95929.34
2022-11-05T02:32:25.549Z,95929.00
2022-11-05T02:34:56.025Z,95906.63
2022-11-05T02:37:34.231Z,95855.69
2022-11-05T02:40:11.476Z,95937.84
2022-11-05T02:43:03.944Z,95933.81
2022-11-05T02:46:02.938Z,95933.97
2022-11-05T02:48:36.170Z,95902.63
2022-11-05T02:51:21.218Z,95931.50
2022-11-05T02:53:54.972Z,95927.31
2022-11-05T02:56:36.122Z,95838.41
2022-11-05T02:59:02.986Z,95871.47
2022-11-05T03:01:29.684Z,95773.03
2022-11-05T03:04:00.828Z,95892.50
2022-11-05T03:06:49.230Z,95951.91
2022-11-05T03:09:20.673Z,95921.00
2022-11-05T03:11:51.446Z,95964.38
2022-11-05T03:14:25.150Z,95966.00
2022-11-05T03:17:13.016Z,95964.56
2022-11-05T03:19:41.861Z,95906.81
2022-11-05T03:22:13.405Z,95883.66
2022-11-05T03:24:42.999Z,95795.59
2022-11-05T03:27:14.323Z,95927.53
2022-11-05T03:29:49.000Z,95898.63
2022-11-05T03:32:16.110Z,95925.84
2022-11-05T03:34:47.314Z,95968.13
2022-11-05T03:37:14.050Z,95742.09
2022-11-05T03:39:46.084Z,95912.03
2022-11-05T03:42:15.740Z,95904.44
2022-11-05T03:44:45.086Z,95935.38
2022-11-05T03:47:17.259Z,95919.28
2022-11-05T03:49:48.933Z,95862.13
2022-11-05T03:52:19.887Z,95887.19
2022-11-05T03:54:46.647Z,95902.22
2022-11-05T03:57:27.761Z,95902.75
2022-11-05T03:59:54.392Z,95921.13
2022-11-05T04:02:23.277Z,95925.50
2022-11-05T04:04:50.016Z,95919.53
2022-11-05T04:07:35.114Z,95911.94
2022-11-05T04:10:20.342Z,95825.88
2022-11-05T04:13:05.528Z,95917.97
2022-11-05T04:15:52.257Z,95815.56
2022-11-05T04:18:19.138Z,95968.16
2022-11-05T04:21:04.402Z,95699.72
2022-11-05T04:23:49.475Z,95974.84
2022-11-05T04:26:16.086Z,95961.06
2022-11-05T04:29:05.251Z,95869.38
2022-11-05T04:31:34.376Z,95890.06
2022-11-05T04:34:01.096Z,95902.81
2022-11-05T04:36:27.711Z,95911.81
2022-11-05T04:38:54.284Z,95819.47
2022-11-05T04:41:20.866Z,95982.59
2022-11-05T04:43:47.514Z,95962.56
2022-11-05T04:46:14.293Z,95904.94
2022-11-05T04:48:40.885Z,95878.94
2022-11-05T04:51:07.467Z,95935.38
2022-11-05T04:53:34.125Z,95930.22
2022-11-05T04:56:21.390Z,95941.09
2022-11-05T04:58:48.142Z,95911.41
2022-11-05T05:01:16.053Z,95945.75
2022-11-05T05:03:42.762Z,95880.78
2022-11-05T05:06:09.687Z,95964.09
2022-11-05T05:08:43.586Z,95995.16
2022-11-05T05:11:13.559Z,95954.00
2022-11-05T05:13:40.243Z,95929.88
2022-11-05T05:16:16.112Z,95930.84
2022-11-05T05:18:46.273Z,95871.88
2022-11-05T05:21:33.778Z,96023.84
2022-11-05T05:24:00.706Z,95910.84
2022-11-05T05:26:27.670Z,95947.75
2022-11-05T05:28:54.310Z,95909.25
2022-11-05T05:31:21.757Z,96027.53
2022-11-05T05:33:48.364Z,95976.31
2022-11-05T05:36:15.030Z,95988.69
2022-11-05T05:38:41.654Z,95994.00
2022-11-05T05:41:08.295Z,95772.88
2022-11-05T05:43:34.869Z,95910.41
2022-11-05T05:46:05.100Z,95958.13
2022-11-05T05:48:31.705Z,95990.19
2022-11-05T05:51:06.186Z,96016.94
2022-11-05T05:53:32.870Z,95998.44
2022-11-05T05:55:59.555Z,95785.19
2022-11-05T05:58:27.416Z,95973.53
2022-11-05T06:00:54.407Z,95967.44
2022-11-05T06:03:21.239Z,95991.75
2022-11-05T06:05:47.956Z,95990.44
2022-11-05T06:08:14.522Z,96046.59
2022-11-05T06:10:41.201Z,95964.69
2022-11-05T06:13:07.924Z,96058.41
2022-11-05T06:15:36.113Z,96039.06
2022-11-05T06:18:03.078Z,95960.28
2022-11-05T06:20:29.740Z,96023.31
2022-11-05T06:22:59.377Z,96013.59
2022-11-05T06:25:26.314Z,95983.00
2022-11-05T06:27:53.484Z,96079.28
2022-11-05T06:30:21.756Z,95776.81
2022-11-05T06:32:48.393Z,96098.16
2022-11-05T06:35:14.984Z,96116.59
2022-11-05T06:37:41.595Z,96133.56
2022-11-05T06:40:08.578Z,96104.66
2022-11-05T06:42:35.356Z,96124.78
2022-11-05T06:45:01.936Z,96100.16
2022-11-05T06:47:28.673Z,96082.81
2022-11-05T06:49:56.859Z,96093.97
2022-11-05T06:52:23.421Z,96110.47
2022-11-05T06:54:49.990Z,96082.88
2022-11-05T06:57:16.748Z,96160.41
2022-11-05T06:59:43.491Z,96107.81
2022-11-05T07:02:10.787Z,96146.63
2022-11-05T07:04:37.507Z,96131.88
2022-11-05T07:07:04.144Z,96141.25
2022-11-05T07:09:30.783Z,96114.44
2022-11-05T07:11:57.374Z,96145.66
2022-11-05T07:14:24.106Z,96157.69
2022-11-05T07:16:50.879Z,95892.88
2022-11-05T07:19:17.460Z,96151.41
2022-11-05T07:21:44.193Z,96103.53
2022-11-05T07:24:10.924Z,96192.47
2022-11-05T07:26:37.542Z,96207.44
2022-11-05T07:29:04.096Z,96166.03
2022-11-05T07:31:30.810Z,96145.88
2022-11-05T07:33:59.329Z,96197.16
2022-11-05T07:36:26.247Z,96150.53
2022-11-05T07:38:57.378Z,96220.78
2022-11-05T07:41:26.886Z,96198.66
2022-11-05T07:43:53.558Z,96176.34
2022-11-05T07:46:20.315Z,96149.25
2022-11-05T07:48:46.923Z,96174.44
2022-11-05T07:51:13.544Z,95999.81
2022-11-05T07:53:45.138Z,96205.81
2022-11-05T07:56:13.008Z,95975.69
2022-11-05T07:58:39.624Z,96243.81
2022-11-05T08:01:07.301Z,96211.34
2022-11-05T08:03:34.262Z,96031.75
2022-11-05T08:06:01.057Z,96200.06
2022-11-05T08:08:27.655Z,96208.63
2022-11-05T08:10:54.284Z,96226.03
2022-11-05T08:13:20.955Z,95993.78
2022-11-05T08:15:47.638Z,96225.28
2022-11-05T08:18:15.984Z,96213.72
2022-11-05T08:20:43.123Z,95976.16
2022-11-05T08:23:10.137Z,96163.94
2022-11-05T08:25:37.284Z,95971.22
2022-11-05T08:28:05.665Z,96155.56
2022-11-05T08:30:32.304Z,96208.00
2022-11-05T08:33:00.741Z,96135.75
2022-11-05T08:35:29.518Z,96067.09
2022-11-05T08:38:03.058Z,96211.94
2022-11-05T08:40:33.776Z,96111.94
2022-11-05T08:43:00.997Z,96232.50
2022-11-05T08:45:27.794Z,96150.06
2022-11-05T08:48:11.127Z,96222.19
2022-11-05T08:50:38.046Z,96187.41
2022-11-05T08:53:05.322Z,96252.97
2022-11-05T08:55:32.181Z,96003.28
2022-11-05T08:58:00.040Z,96257.34
2022-11-05T09:00:27.294Z,96249.00
2022-11-05T09:02:53.874Z,96223.00
2022-11-05T09:05:20.530Z,96182.03
2022-11-05T09:07:47.233Z,96230.31
2022-11-05T09:10:13.805Z,96254.94
2022-11-05T09:12:40.694Z,96210.22
2022-11-05T09:15:07.956Z,96207.13
2022-11-05T09:17:34.592Z,96179.44
2022-11-05T09:20:02.155Z,96237.09
2022-11-05T09:22:28.753Z,96260.22
2022-11-05T09:24:55.324Z,96083.75
2022-11-05T09:27:21.995Z,96019.50
2022-11-05T09:29:48.582Z,96217.22
2022-11-05T09:32:19.126Z,96200.50
2022-11-05T09:34:45.815Z,96205.16
2022-11-05T09:37:12.542Z,96181.75
2022-11-05T09:39:39.120Z,96282.53
2022-11-05T09:42:07.842Z,96267.16
2022-11-05T09:44:51.645Z,96258.66
2022-11-05T09:47:27.749Z,96299.03
